メインページ
METAR-TAF:

METAR-TAF

空港 :

Medicine Hat, アルバータ州, カナダ

緯度: 50-01N, 経度: 110-43W, 海抜: 717m

現時点の気象観測

当レポートは38分前の09:00(UTC)に作成
南/南西の風 9kt
気温 -2°C
湿度 86%
気圧 1018 hPa
視程: 14.5km
晴天

METAR: CYXH 140900Z AUTO 21009KT 9SM CLR M02/M04 A3007 RMK SLP211

時間: 02:38 (09:38 UTC)

予報

当レポートは4時間0分前の05:38(UTC)に作成
予報は14日の 06時(UTC)から 14日の 18時(UTC)まで有効
南西の風 8kt
視程: 10km
高度20000ftの雲はほとんどない

TAF: CYXH 140538Z 1406/1418 22008KT P6SM FEW200 RMK FCST BASED ON AUTO OBS. NXT FCST BY 141200Z

4,000以上の空港の気象観測と天気予報(METAR報とTAF報)

利用可能な観測所は地図上に黄色い丸と赤い丸で示す。

丸の上にカーソルを重ねると観測所名を参照できる。

次にクリックすると気象観測と天気予報を参照できる。

マップの切り替え:黒色「×」印の緑ボタンをクリックして拡大、「-」印の緑ボタンをクリックして縮小、緑色の三角印をクリックして隣りの地図に切り替え


METAR-TAF: